Time;durP1;ratioP1;P1;durP2;ratioP2;P2;SDS_P1;SDS_P2;PMS_P1;PMS_P2;Temp;Humidity;BMP_temperature;BMP_pressure;BME280_temperature;BME280_humidity;BME280_pressure;Samples;Min_cycle;Max_cycle;Signal;HPM_P1;HPM_P2
2022/01/19 00:00:00;;;;;;;;;;;4.30;99.90;;;;;;2090542;28;20272;-71
2022/01/19 00:01:01;;;;;;;;;;;4.30;99.90;;;;;;2087877;28;19959;-71
2022/01/19 00:02:01;;;;;;;;;;;4.30;99.90;;;;;;2088000;28;19915;-71
2022/01/19 00:03:02;;;;;;;;;;;4.30;99.90;;;;;;2097908;28;19919;-71
2022/01/19 00:04:03;;;;;;;;;;;4.30;99.90;;;;;;2097029;28;20011;-71
2022/01/19 00:05:04;;;;;;;;;;;4.20;99.90;;;;;;2088757;28;19939;-71
2022/01/19 00:06:04;;;;;;;;;;;4.20;99.90;;;;;;2088262;28;19931;-71
2022/01/19 00:07:05;;;;;;;;;;;4.20;99.90;;;;;;2088390;28;19909;-71
2022/01/19 00:08:05;;;;;;;;;;;4.20;99.90;;;;;;2088830;28;20348;-71
2022/01/19 00:09:06;;;;;;;;;;;4.20;99.90;;;;;;2089082;28;19959;-71
2022/01/19 00:10:10;;;;;;;;;;;4.20;99.90;;;;;;2088376;28;19950;-70
2022/01/19 00:11:11;;;;;;;;;;;4.20;99.90;;;;;;2089141;28;19909;-70
2022/01/19 00:12:11;;;;;;;;;;;4.20;99.90;;;;;;2089024;28;19958;-70
2022/01/19 00:13:11;;;;;;;;;;;4.10;99.90;;;;;;2088416;28;19913;-70
2022/01/19 00:14:12;;;;;;;;;;;4.10;99.90;;;;;;2088921;28;19912;-70
2022/01/19 00:15:12;;;;;;;;;;;4.10;99.90;;;;;;2088784;28;20391;-70
2022/01/19 00:16:13;;;;;;;;;;;4.10;99.90;;;;;;2088437;28;19932;-70
2022/01/19 00:17:13;;;;;;;;;;;4.10;99.90;;;;;;2088565;28;19974;-71
2022/01/19 00:18:16;;;;;;;;;;;4.10;99.90;;;;;;2086324;28;19928;-71
2022/01/19 00:19:16;;;;;;;;;;;4.00;99.90;;;;;;2088185;28;19988;-71
2022/01/19 00:20:17;;;;;;;;;;;4.10;99.90;;;;;;2088489;28;20007;-71
2022/01/19 00:21:17;;;;;;;;;;;4.00;99.90;;;;;;2088717;28;19916;-70
2022/01/19 00:22:18;;;;;;;;;;;4.00;99.90;;;;;;2088949;28;19934;-71
2022/01/19 00:23:19;;;;;;;;;;;4.00;99.90;;;;;;2088377;28;19974;-71
2022/01/19 00:24:19;;;;;;;;;;;3.90;99.90;;;;;;2088810;28;20037;-70
2022/01/19 00:25:20;;;;;;;;;;;4.00;99.90;;;;;;2088855;28;20381;-70
2022/01/19 00:26:20;;;;;;;;;;;3.90;99.90;;;;;;2088706;28;19913;-70
2022/01/19 00:27:21;;;;;;;;;;;3.90;99.90;;;;;;2088716;28;20369;-71
2022/01/19 00:28:22;;;;;;;;;;;3.90;99.90;;;;;;2088848;28;19909;-71
2022/01/19 00:29:22;;;;;;;;;;;3.90;99.90;;;;;;2088552;28;19920;-71
2022/01/19 00:30:23;;;;;;;;;;;3.90;99.90;;;;;;2088776;28;19948;-71
2022/01/19 00:31:23;;;;;;;;;;;3.90;99.90;;;;;;2088542;28;19920;-71
2022/01/19 00:32:25;;;;;;;;;;;3.90;99.90;;;;;;2085649;28;20024;-71
2022/01/19 00:33:25;;;;;;;;;;;3.80;99.90;;;;;;2088275;28;20016;-70
2022/01/19 00:34:28;;;;;;;;;;;3.80;99.90;;;;;;2085905;28;19913;-70
2022/01/19 00:35:28;;;;;;;;;;;3.80;99.90;;;;;;2088289;28;19915;-70
2022/01/19 00:36:29;;;;;;;;;;;3.80;99.90;;;;;;2089045;28;19920;-71
2022/01/19 00:37:30;;;;;;;;;;;3.80;99.90;;;;;;2088642;28;19916;-71
2022/01/19 00:38:30;;;;;;;;;;;3.70;99.90;;;;;;2088719;28;19909;-71
2022/01/19 00:39:32;;;;;;;;;;;3.70;99.90;;;;;;2088558;28;20366;-70
2022/01/19 00:40:34;;;;;;;;;;;3.70;99.90;;;;;;2088785;28;19923;-71
2022/01/19 00:41:34;;;;;;;;;;;3.70;99.90;;;;;;2088478;28;19908;-70
2022/01/19 00:42:35;;;;;;;;;;;3.70;99.90;;;;;;2088472;28;19909;-70
2022/01/19 00:43:37;;;;;;;;;;;3.70;99.90;;;;;;2088615;28;20395;-70
2022/01/19 00:44:38;;;;;;;;;;;3.70;99.90;;;;;;2088843;28;19917;-70
2022/01/19 00:45:39;;;;;;;;;;;3.60;99.90;;;;;;2088378;28;19940;-71
2022/01/19 00:46:39;;;;;;;;;;;3.60;99.90;;;;;;2088859;28;19955;-70
2022/01/19 00:47:40;;;;;;;;;;;3.60;99.90;;;;;;2088498;28;19980;-70
2022/01/19 00:48:41;;;;;;;;;;;3.60;99.90;;;;;;2087796;28;20059;-70
2022/01/19 00:49:42;;;;;;;;;;;3.60;99.90;;;;;;2087439;28;19913;-70
2022/01/19 00:50:43;;;;;;;;;;;3.60;99.90;;;;;;2086478;28;20005;-70
2022/01/19 00:51:43;;;;;;;;;;;3.60;99.90;;;;;;2087163;28;19917;-70
2022/01/19 00:52:44;;;;;;;;;;;3.50;99.90;;;;;;2088209;28;19915;-70
2022/01/19 00:53:44;;;;;;;;;;;3.50;99.90;;;;;;2088455;28;20376;-70
2022/01/19 00:54:45;;;;;;;;;;;3.50;99.90;;;;;;2096183;28;19946;-70
2022/01/19 00:55:45;;;;;;;;;;;3.50;99.90;;;;;;2077586;28;20501;-70
2022/01/19 00:56:45;;;;;;;;;;;3.50;99.90;;;;;;2087921;28;19959;-70
2022/01/19 00:57:46;;;;;;;;;;;3.50;99.90;;;;;;2088565;28;19916;-70
2022/01/19 00:58:46;;;;;;;;;;;3.40;99.90;;;;;;2088443;28;19951;-71
2022/01/19 00:59:47;;;;;;;;;;;3.40;99.90;;;;;;2088638;28;19952;-71
2022/01/19 01:00:47;;;;;;;;;;;3.40;99.90;;;;;;2088581;28;19913;-70
2022/01/19 01:01:48;;;;;;;;;;;3.40;99.90;;;;;;2088338;28;19945;-70
2022/01/19 01:02:48;;;;;;;;;;;3.40;99.90;;;;;;2088102;28;20665;-70
2022/01/19 01:03:49;;;;;;;;;;;3.40;99.90;;;;;;2088383;28;19913;-70
2022/01/19 01:04:49;;;;;;;;;;;3.40;99.90;;;;;;2088561;28;19909;-70
2022/01/19 01:05:50;;;;;;;;;;;3.40;99.90;;;;;;2088553;28;19916;-70
2022/01/19 01:06:50;;;;;;;;;;;3.30;99.90;;;;;;2089243;28;19921;-70
2022/01/19 01:07:51;;;;;;;;;;;3.30;99.90;;;;;;2090364;28;20011;-70
2022/01/19 01:08:51;;;;;;;;;;;3.30;99.90;;;;;;2090171;28;20003;-70
2022/01/19 01:09:51;;;;;;;;;;;3.30;99.90;;;;;;2090350;28;19998;-70
2022/01/19 01:10:52;;;;;;;;;;;3.30;99.90;;;;;;2090045;28;19909;-70
2022/01/19 01:13:06;;;;;;;;;;;3.30;99.90;;;;;;2087970;28;19916;-71
2022/01/19 01:16:36;;;;;;;;;;;3.20;99.90;;;;;;2090014;28;19912;-70
2022/01/19 01:18:56;;;;;;;;;;;3.10;99.90;;;;;;2090233;28;20341;-70
2022/01/19 01:19:57;;;;;;;;;;;3.10;99.90;;;;;;2090297;28;20334;-70
2022/01/19 01:20:58;;;;;;;;;;;3.10;99.90;;;;;;2089305;28;19912;-70
2022/01/19 01:21:59;;;;;;;;;;;3.10;99.90;;;;;;2088023;28;19920;-70
2022/01/19 01:22:59;;;;;;;;;;;3.10;99.90;;;;;;2085442;28;19909;-70
2022/01/19 01:24:00;;;;;;;;;;;3.10;99.90;;;;;;2090335;28;19960;-70
2022/01/19 01:25:01;;;;;;;;;;;3.10;99.90;;;;;;2090040;28;19932;-70
2022/01/19 01:26:05;;;;;;;;;;;3.10;99.90;;;;;;2090171;28;19941;-70
2022/01/19 01:27:05;;;;;;;;;;;3.10;99.90;;;;;;2090125;28;19913;-70
2022/01/19 01:28:06;;;;;;;;;;;3.10;99.90;;;;;;2090204;28;19955;-70
2022/01/19 01:29:07;;;;;;;;;;;3.10;99.90;;;;;;2090072;28;19955;-70
2022/01/19 01:30:08;;;;;;;;;;;3.00;99.90;;;;;;2086505;28;19917;-70
2022/01/19 01:31:09;;;;;;;;;;;3.10;99.90;;;;;;2085573;28;19913;-70
2022/01/19 01:32:09;;;;;;;;;;;3.00;99.90;;;;;;2086253;28;19913;-70
2022/01/19 01:33:10;;;;;;;;;;;3.00;99.90;;;;;;2088620;28;19916;-70
2022/01/19 01:34:10;;;;;;;;;;;3.00;99.90;;;;;;2090236;28;19909;-70
2022/01/19 01:35:11;;;;;;;;;;;3.00;99.90;;;;;;2089300;28;19913;-70
2022/01/19 01:36:11;;;;;;;;;;;3.00;99.90;;;;;;2089483;28;19920;-70
2022/01/19 01:37:12;;;;;;;;;;;3.00;99.90;;;;;;2089895;28;19955;-70
2022/01/19 01:38:13;;;;;;;;;;;3.00;99.90;;;;;;2087626;28;20006;-70
2022/01/19 01:39:13;;;;;;;;;;;3.00;99.90;;;;;;2090410;28;19992;-70
2022/01/19 01:40:14;;;;;;;;;;;2.90;99.90;;;;;;2083501;28;19944;-70
2022/01/19 01:41:15;;;;;;;;;;;2.90;99.90;;;;;;2089881;28;20004;-70
2022/01/19 01:42:18;;;;;;;;;;;2.90;99.90;;;;;;2091573;28;19909;-70
2022/01/19 01:43:19;;;;;;;;;;;2.90;99.90;;;;;;2091613;28;19913;-71
2022/01/19 01:44:19;;;;;;;;;;;2.90;99.90;;;;;;2091619;28;19999;-70
2022/01/19 01:45:25;;;;;;;;;;;2.90;99.90;;;;;;2091854;28;20425;-70
2022/01/19 01:47:00;;;;;;;;;;;2.90;99.90;;;;;;2090014;28;19970;-70
2022/01/19 01:48:02;;;;;;;;;;;2.90;99.90;;;;;;2088323;28;20659;-70
2022/01/19 01:49:03;;;;;;;;;;;2.90;99.90;;;;;;2091619;28;20003;-70
2022/01/19 01:53:43;;;;;;;;;;;2.90;99.90;;;;;;2091687;28;19909;-70
2022/01/19 01:54:43;;;;;;;;;;;2.90;99.90;;;;;;2090616;28;19952;-70
2022/01/19 01:55:45;;;;;;;;;;;2.80;99.90;;;;;;2091478;28;19979;-70
2022/01/19 01:56:46;;;;;;;;;;;2.80;99.90;;;;;;2090098;28;19932;-70
2022/01/19 01:57:47;;;;;;;;;;;2.80;99.90;;;;;;2090945;28;19915;-70
2022/01/19 01:58:48;;;;;;;;;;;2.80;99.90;;;;;;2090878;28;19997;-70
2022/01/19 01:59:49;;;;;;;;;;;2.80;99.90;;;;;;2091651;28;19916;-70
2022/01/19 02:00:50;;;;;;;;;;;2.80;99.90;;;;;;2091492;28;19909;-70
2022/01/19 02:01:51;;;;;;;;;;;2.70;99.90;;;;;;2091548;28;19913;-70
2022/01/19 02:02:52;;;;;;;;;;;2.70;99.90;;;;;;2090961;28;19955;-70
2022/01/19 02:03:52;;;;;;;;;;;2.70;99.90;;;;;;2090159;28;19920;-70
2022/01/19 02:04:53;;;;;;;;;;;2.70;99.90;;;;;;2090328;28;20368;-70
2022/01/19 02:06:28;;;;;;;;;;;2.70;99.90;;;;;;2089906;28;19924;-70
2022/01/19 02:07:39;;;;;;;;;;;2.70;99.90;;;;;;2089886;28;19913;-70
2022/01/19 02:08:45;;;;;;;;;;;2.70;99.90;;;;;;2089648;28;20566;-70
2022/01/19 02:09:50;;;;;;;;;;;2.70;99.90;;;;;;2084908;28;19912;-70
2022/01/19 02:11:18;;;;;;;;;;;2.60;99.90;;;;;;2089776;28;19913;-70
2022/01/19 02:22:04;;;;;;;;;;;2.50;99.90;;;;;;2081594;28;20385;-70
2022/01/19 02:23:24;;;;;;;;;;;2.50;99.90;;;;;;2086719;28;20308;-70
2022/01/19 02:24:29;;;;;;;;;;;2.50;99.90;;;;;;2089925;28;19913;-70
2022/01/19 02:25:39;;;;;;;;;;;2.50;99.90;;;;;;2089716;28;20000;-70
2022/01/19 02:29:56;;;;;;;;;;;2.50;99.90;;;;;;2089452;28;20598;-70
2022/01/19 02:31:03;;;;;;;;;;;2.50;99.90;;;;;;2089302;28;19956;-70
2022/01/19 02:36:38;;;;;;;;;;;2.50;99.90;;;;;;2089488;28;20298;-70
2022/01/19 02:41:11;;;;;;;;;;;2.40;99.90;;;;;;2089558;28;19959;-70
2022/01/19 02:42:13;;;;;;;;;;;2.40;99.90;;;;;;2089201;28;20368;-70
2022/01/19 02:43:21;;;;;;;;;;;2.40;99.90;;;;;;2086740;28;19921;-70
2022/01/19 02:44:38;;;;;;;;;;;2.40;99.90;;;;;;2088722;28;20376;-70
2022/01/19 02:49:35;;;;;;;;;;;2.40;99.90;;;;;;2089037;28;19948;-71
2022/01/19 02:50:36;;;;;;;;;;;2.40;99.90;;;;;;2089418;28;19909;-70
2022/01/19 02:51:36;;;;;;;;;;;2.40;99.90;;;;;;2089505;28;19913;-70
2022/01/19 02:52:37;;;;;;;;;;;2.40;99.90;;;;;;2088214;28;19924;-70
2022/01/19 02:53:38;;;;;;;;;;;2.40;99.90;;;;;;2088732;28;19920;-70
2022/01/19 02:54:39;;;;;;;;;;;2.40;99.90;;;;;;2089591;28;20337;-70
2022/01/19 02:55:39;;;;;;;;;;;2.40;99.90;;;;;;2089204;28;19916;-70
2022/01/19 02:56:43;;;;;;;;;;;2.40;99.90;;;;;;2088718;28;19917;-70
2022/01/19 02:57:46;;;;;;;;;;;2.40;99.90;;;;;;2088847;28;20295;-70
2022/01/19 02:58:47;;;;;;;;;;;2.50;99.90;;;;;;2089771;28;19996;-70
2022/01/19 03:08:50;;;;;;;;;;;2.70;99.90;;;;;;2090781;28;19909;-71
2022/01/19 03:09:50;;;;;;;;;;;2.70;99.90;;;;;;2090788;28;19909;-70
2022/01/19 03:10:51;;;;;;;;;;;2.70;99.90;;;;;;2090733;28;19963;-70
2022/01/19 03:11:51;;;;;;;;;;;2.70;99.90;;;;;;2090927;28;20317;-70
2022/01/19 03:12:52;;;;;;;;;;;2.70;99.90;;;;;;2090184;28;19909;-70
2022/01/19 03:13:52;;;;;;;;;;;2.80;99.90;;;;;;2090631;28;19909;-70
2022/01/19 03:14:53;;;;;;;;;;;2.80;99.90;;;;;;2090363;28;19913;-71
2022/01/19 03:15:53;;;;;;;;;;;2.90;99.90;;;;;;2090833;28;20289;-71
2022/01/19 03:16:54;;;;;;;;;;;2.90;99.90;;;;;;2090549;28;19908;-71
2022/01/19 03:17:58;;;;;;;;;;;2.90;99.90;;;;;;2090754;28;20000;-71
2022/01/19 03:18:58;;;;;;;;;;;3.00;99.90;;;;;;2090022;28;20265;-71
2022/01/19 03:19:59;;;;;;;;;;;3.10;99.90;;;;;;2088818;28;20038;-71
2022/01/19 03:21:00;;;;;;;;;;;3.10;99.90;;;;;;2090516;28;19908;-71
2022/01/19 03:22:00;;;;;;;;;;;3.20;99.90;;;;;;2090769;28;19985;-71
2022/01/19 03:24:02;;;;;;;;;;;3.20;99.90;;;;;;2090551;28;19916;-71
2022/01/19 03:25:05;;;;;;;;;;;3.20;99.90;;;;;;2090275;28;19912;-71
2022/01/19 03:26:07;;;;;;;;;;;3.30;99.90;;;;;;2089786;28;20015;-71
2022/01/19 03:27:07;;;;;;;;;;;3.30;99.90;;;;;;2090029;28;19912;-71
2022/01/19 03:28:08;;;;;;;;;;;3.40;99.90;;;;;;2089171;28;19986;-71
2022/01/19 03:29:08;;;;;;;;;;;3.40;99.90;;;;;;2083377;28;19967;-71
2022/01/19 03:30:09;;;;;;;;;;;3.40;99.90;;;;;;2090389;28;19908;-71
2022/01/19 03:31:09;;;;;;;;;;;3.50;99.90;;;;;;2089628;28;19909;-71
2022/01/19 03:32:10;;;;;;;;;;;3.50;99.90;;;;;;2090710;28;19909;-72
2022/01/19 03:33:11;;;;;;;;;;;3.50;99.90;;;;;;2089938;28;19992;-71
2022/01/19 03:34:12;;;;;;;;;;;3.50;99.90;;;;;;2090575;28;19955;-71
2022/01/19 03:35:13;;;;;;;;;;;3.60;99.90;;;;;;2090684;28;19912;-71
2022/01/19 03:36:14;;;;;;;;;;;3.60;99.90;;;;;;2090695;28;19916;-71
2022/01/19 03:37:14;;;;;;;;;;;3.60;99.90;;;;;;2090413;28;20392;-71
2022/01/19 03:38:14;;;;;;;;;;;3.60;99.90;;;;;;2090600;28;20281;-71
2022/01/19 03:39:15;;;;;;;;;;;3.70;99.90;;;;;;2089628;28;19908;-71
2022/01/19 03:40:16;;;;;;;;;;;3.70;99.90;;;;;;2089843;28;19970;-71
2022/01/19 03:41:16;;;;;;;;;;;3.70;99.90;;;;;;2090684;28;20361;-71
2022/01/19 03:42:17;;;;;;;;;;;3.80;99.90;;;;;;2090063;28;19917;-71
2022/01/19 03:43:17;;;;;;;;;;;3.80;99.90;;;;;;2089790;28;20007;-71
2022/01/19 03:44:17;;;;;;;;;;;3.80;99.90;;;;;;2090344;28;19958;-71
2022/01/19 03:45:18;;;;;;;;;;;3.80;99.90;;;;;;2090611;28;20276;-71
2022/01/19 03:46:21;;;;;;;;;;;3.90;99.90;;;;;;2090470;28;19909;-71
2022/01/19 03:47:21;;;;;;;;;;;3.90;99.90;;;;;;2090535;28;19913;-71
2022/01/19 03:49:37;;;;;;;;;;;3.90;99.90;;;;;;2090323;28;19962;-71
2022/01/19 03:50:38;;;;;;;;;;;3.90;99.90;;;;;;2090291;28;19908;-71
2022/01/19 03:51:38;;;;;;;;;;;4.00;99.90;;;;;;2090604;28;19909;-71
2022/01/19 03:52:39;;;;;;;;;;;4.00;99.90;;;;;;2090356;28;20020;-71
2022/01/19 03:53:39;;;;;;;;;;;4.00;99.90;;;;;;2089890;28;19912;-71
2022/01/19 03:54:41;;;;;;;;;;;4.00;99.90;;;;;;2090332;28;19948;-71
2022/01/19 03:55:42;;;;;;;;;;;4.00;99.90;;;;;;2090193;28;19920;-71
2022/01/19 03:56:42;;;;;;;;;;;4.00;99.90;;;;;;2090329;28;19920;-71
2022/01/19 03:57:43;;;;;;;;;;;4.10;99.90;;;;;;2084638;28;19960;-71
2022/01/19 03:58:44;;;;;;;;;;;4.10;99.90;;;;;;2086494;28;19999;-72
2022/01/19 03:59:44;;;;;;;;;;;4.10;99.90;;;;;;2090633;28;19909;-72
2022/01/19 04:00:45;;;;;;;;;;;4.10;99.90;;;;;;2081335;28;19910;-72
2022/01/19 04:01:46;;;;;;;;;;;4.10;99.90;;;;;;2084661;28;19920;-72
2022/01/19 04:02:48;;;;;;;;;;;4.20;99.90;;;;;;2088862;28;19908;-72
2022/01/19 04:04:12;;;;;;;;;;;4.20;99.90;;;;;;2089459;28;19958;-72
2022/01/19 04:05:25;;;;;;;;;;;4.20;99.90;;;;;;2089038;28;19913;-72
2022/01/19 04:06:29;;;;;;;;;;;4.20;99.90;;;;;;2089456;28;19912;-72
2022/01/19 04:07:30;;;;;;;;;;;4.30;99.90;;;;;;2089670;28;19912;-72
2022/01/19 04:08:30;;;;;;;;;;;4.30;99.90;;;;;;2089061;28;19936;-72
2022/01/19 04:09:31;;;;;;;;;;;4.30;99.90;;;;;;2087925;28;19913;-72
2022/01/19 04:10:32;;;;;;;;;;;4.30;99.90;;;;;;2081002;28;20421;-72
2022/01/19 04:11:32;;;;;;;;;;;4.30;99.90;;;;;;2084373;28;19909;-72
2022/01/19 04:13:24;;;;;;;;;;;4.30;99.90;;;;;;2080998;28;19909;-72
2022/01/19 04:14:56;;;;;;;;;;;4.40;99.90;;;;;;2085812;28;19913;-72
2022/01/19 04:15:57;;;;;;;;;;;4.30;99.90;;;;;;2088899;28;19924;-72
2022/01/19 04:16:59;;;;;;;;;;;4.40;99.90;;;;;;2089173;28;19948;-72
2022/01/19 04:18:00;;;;;;;;;;;4.40;99.90;;;;;;2089002;28;19913;-72
2022/01/19 04:19:23;;;;;;;;;;;4.40;99.90;;;;;;2088634;28;19916;-72
2022/01/19 04:20:25;;;;;;;;;;;4.40;99.90;;;;;;2089327;28;20321;-72
2022/01/19 04:21:26;;;;;;;;;;;4.40;99.90;;;;;;2088632;28;20596;-72
2022/01/19 04:22:26;;;;;;;;;;;4.50;99.90;;;;;;2088088;28;20339;-72
2022/01/19 04:23:27;;;;;;;;;;;4.50;99.90;;;;;;2087756;28;19956;-72
2022/01/19 04:24:27;;;;;;;;;;;4.50;99.90;;;;;;2087008;28;19917;-72
2022/01/19 04:25:28;;;;;;;;;;;4.50;99.90;;;;;;2080159;28;19913;-72
2022/01/19 04:26:28;;;;;;;;;;;4.50;99.90;;;;;;2083134;28;19920;-72
2022/01/19 04:28:29;;;;;;;;;;;4.50;99.90;;;;;;2088858;28;19912;-72
2022/01/19 04:29:30;;;;;;;;;;;4.60;99.90;;;;;;2088738;28;19916;-72
2022/01/19 04:30:30;;;;;;;;;;;4.60;99.90;;;;;;2088187;28;19909;-72
2022/01/19 04:31:32;;;;;;;;;;;4.60;99.90;;;;;;2088256;28;19970;-72
2022/01/19 04:32:41;;;;;;;;;;;4.60;99.90;;;;;;2088494;28;19909;-72
2022/01/19 04:33:44;;;;;;;;;;;4.60;99.90;;;;;;2087614;28;20273;-72
2022/01/19 04:34:47;;;;;;;;;;;4.60;99.90;;;;;;2088888;28;20353;-72
2022/01/19 04:35:52;;;;;;;;;;;4.70;99.90;;;;;;2088763;28;19966;-72
2022/01/19 04:39:24;;;;;;;;;;;4.70;99.90;;;;;;2089082;28;19909;-72
2022/01/19 04:44:36;;;;;;;;;;;4.70;99.90;;;;;;2087741;28;19913;-72
2022/01/19 05:04:52;;;;;;;;;;;5.00;99.90;;;;;;2088711;28;19916;-72
2022/01/19 05:06:00;;;;;;;;;;;5.00;99.90;;;;;;2088729;28;19966;-72
2022/01/19 05:14:18;;;;;;;;;;;5.10;99.90;;;;;;2090505;28;20349;-72
2022/01/19 05:15:19;;;;;;;;;;;5.10;99.90;;;;;;2090307;28;20311;-72
2022/01/19 05:16:20;;;;;;;;;;;5.10;99.90;;;;;;2090004;28;20315;-72
2022/01/19 05:17:20;;;;;;;;;;;5.10;99.90;;;;;;2090656;28;20895;-72
2022/01/19 05:18:21;;;;;;;;;;;5.10;99.90;;;;;;2089825;28;20320;-72
2022/01/19 05:19:21;;;;;;;;;;;5.10;99.90;;;;;;2089667;28;19959;-72
2022/01/19 05:20:22;;;;;;;;;;;5.10;99.90;;;;;;2084462;28;20334;-72
2022/01/19 05:21:22;;;;;;;;;;;5.10;99.90;;;;;;2089602;28;19919;-71
2022/01/19 05:22:23;;;;;;;;;;;5.10;99.90;;;;;;2090608;28;20380;-72
2022/01/19 05:23:23;;;;;;;;;;;5.10;99.90;;;;;;2090058;28;19909;-72
2022/01/19 05:24:24;;;;;;;;;;;5.20;99.90;;;;;;2089344;28;20345;-72
2022/01/19 05:25:24;;;;;;;;;;;5.10;99.90;;;;;;2083044;28;19924;-72
2022/01/19 05:26:25;;;;;;;;;;;5.20;99.90;;;;;;2085646;28;20340;-72
2022/01/19 05:27:25;;;;;;;;;;;5.20;99.90;;;;;;2090483;28;19959;-72
2022/01/19 05:28:25;;;;;;;;;;;5.20;99.90;;;;;;2089894;28;20377;-72
2022/01/19 05:29:26;;;;;;;;;;;5.20;99.90;;;;;;2089558;28;19951;-72
2022/01/19 05:30:26;;;;;;;;;;;5.20;99.90;;;;;;2092139;28;19912;-72
2022/01/19 05:31:27;;;;;;;;;;;5.20;99.90;;;;;;2093289;28;19917;-72
2022/01/19 05:32:27;;;;;;;;;;;5.20;99.90;;;;;;2095687;28;20465;-72
2022/01/19 05:33:28;;;;;;;;;;;5.20;99.90;;;;;;2089975;28;19916;-72
2022/01/19 05:34:28;;;;;;;;;;;5.30;99.90;;;;;;2089035;28;19908;-72
2022/01/19 05:35:30;;;;;;;;;;;5.30;99.90;;;;;;2090193;28;20434;-72
2022/01/19 05:36:30;;;;;;;;;;;5.20;99.90;;;;;;2089371;28;19964;-72
2022/01/19 05:37:36;;;;;;;;;;;5.30;99.90;;;;;;2089301;28;19909;-72
2022/01/19 05:38:36;;;;;;;;;;;5.30;99.90;;;;;;2097097;28;19912;-72
2022/01/19 05:39:37;;;;;;;;;;;5.20;99.90;;;;;;2085766;28;20003;-72
2022/01/19 05:40:37;;;;;;;;;;;5.30;99.90;;;;;;2089480;28;19944;-72
2022/01/19 05:41:38;;;;;;;;;;;5.30;99.90;;;;;;2089749;28;19991;-71
2022/01/19 05:42:38;;;;;;;;;;;5.30;99.90;;;;;;2087757;28;19915;-72
2022/01/19 05:43:39;;;;;;;;;;;5.30;99.90;;;;;;2088680;28;19963;-72
2022/01/19 05:44:40;;;;;;;;;;;5.30;99.90;;;;;;2088977;28;20007;-72
2022/01/19 05:45:40;;;;;;;;;;;5.30;99.90;;;;;;2089034;28;19999;-72
2022/01/19 05:46:41;;;;;;;;;;;5.30;99.90;;;;;;2096760;28;19912;-72
2022/01/19 05:47:41;;;;;;;;;;;5.30;99.90;;;;;;2084423;28;19913;-72
2022/01/19 05:48:42;;;;;;;;;;;5.30;99.90;;;;;;2089702;28;19932;-72
2022/01/19 05:49:43;;;;;;;;;;;5.30;99.90;;;;;;2089635;28;19917;-72
2022/01/19 05:50:44;;;;;;;;;;;5.40;99.90;;;;;;2089384;28;20015;-72
2022/01/19 05:51:45;;;;;;;;;;;5.30;99.90;;;;;;2090856;28;19959;-72
2022/01/19 05:52:45;;;;;;;;;;;5.30;99.90;;;;;;2089191;28;19985;-72
2022/01/19 05:53:46;;;;;;;;;;;5.30;99.90;;;;;;2086005;28;19913;-72
2022/01/19 05:54:46;;;;;;;;;;;5.40;99.90;;;;;;2084664;28;20331;-72
2022/01/19 05:55:47;;;;;;;;;;;5.40;99.90;;;;;;2085382;28;19921;-72
2022/01/19 05:56:47;;;;;;;;;;;5.40;99.90;;;;;;2084817;28;20360;-72
2022/01/19 05:57:48;;;;;;;;;;;5.40;99.90;;;;;;2082653;28;19913;-72
2022/01/19 05:58:48;;;;;;;;;;;5.40;99.90;;;;;;2085180;28;19913;-72
2022/01/19 05:59:49;;;;;;;;;;;5.40;99.90;;;;;;2086037;28;19913;-72
2022/01/19 06:00:49;;;;;;;;;;;5.40;99.90;;;;;;2087115;28;19916;-72
2022/01/19 06:01:50;;;;;;;;;;;5.40;99.90;;;;;;2083393;28;19920;-72
2022/01/19 06:02:52;;;;;;;;;;;5.40;99.90;;;;;;2084219;28;20457;-72
2022/01/19 06:03:52;;;;;;;;;;;5.40;99.90;;;;;;2084243;28;20399;-72
2022/01/19 06:04:53;;;;;;;;;;;5.40;99.90;;;;;;2084209;28;20348;-72
2022/01/19 06:05:53;;;;;;;;;;;5.40;99.90;;;;;;2082753;28;19924;-72
2022/01/19 06:06:56;;;;;;;;;;;5.40;99.90;;;;;;2084919;28;19913;-72
2022/01/19 06:08:12;;;;;;;;;;;5.50;99.90;;;;;;2085628;28;19916;-72
2022/01/19 06:09:33;;;;;;;;;;;5.40;99.90;;;;;;2083091;28;19913;-72
2022/01/19 06:10:42;;;;;;;;;;;5.40;99.90;;;;;;2084146;28;19909;-72
2022/01/19 06:11:43;;;;;;;;;;;5.50;99.90;;;;;;2083122;28;19921;-72
2022/01/19 06:12:43;;;;;;;;;;;5.50;99.90;;;;;;2083742;28;19913;-72
2022/01/19 06:13:44;;;;;;;;;;;5.50;99.90;;;;;;2084927;28;19920;-71
2022/01/19 06:14:44;;;;;;;;;;;5.50;99.90;;;;;;2084716;28;20380;-71
2022/01/19 06:15:45;;;;;;;;;;;5.50;99.90;;;;;;2081829;28;19920;-72
2022/01/19 06:16:46;;;;;;;;;;;5.50;99.90;;;;;;2083784;28;19915;-72
2022/01/19 06:17:46;;;;;;;;;;;5.50;99.90;;;;;;2085478;28;19913;-72
2022/01/19 06:18:47;;;;;;;;;;;5.50;99.90;;;;;;2088366;28;19909;-72
2022/01/19 06:19:48;;;;;;;;;;;5.50;99.90;;;;;;2088329;28;19920;-72
2022/01/19 06:20:48;;;;;;;;;;;5.50;99.90;;;;;;2087296;28;20368;-72
2022/01/19 06:21:49;;;;;;;;;;;5.50;99.90;;;;;;2088411;28;20308;-72
2022/01/19 06:22:49;;;;;;;;;;;5.50;99.90;;;;;;2086603;28;19920;-72
2022/01/19 06:23:50;;;;;;;;;;;5.50;99.90;;;;;;2087418;28;20304;-72
2022/01/19 06:24:50;;;;;;;;;;;5.50;99.90;;;;;;2088253;28;19919;-72
2022/01/19 06:25:51;;;;;;;;;;;5.50;99.90;;;;;;2086508;28;19913;-72
2022/01/19 06:26:51;;;;;;;;;;;5.60;99.90;;;;;;2083231;28;19917;-72
2022/01/19 06:27:52;;;;;;;;;;;5.60;99.90;;;;;;2087220;28;20007;-71
2022/01/19 06:28:52;;;;;;;;;;;5.60;99.90;;;;;;2085309;28;19916;-72
2022/01/19 06:29:53;;;;;;;;;;;5.60;99.90;;;;;;2083704;28;19909;-72
2022/01/19 06:30:53;;;;;;;;;;;5.60;99.90;;;;;;2084458;28;19917;-72
2022/01/19 06:31:53;;;;;;;;;;;5.60;99.90;;;;;;2082764;28;19936;-72
2022/01/19 06:32:54;;;;;;;;;;;5.60;99.90;;;;;;2084195;28;19955;-72
2022/01/19 06:33:54;;;;;;;;;;;5.60;99.90;;;;;;2084671;28;20313;-72
2022/01/19 06:34:55;;;;;;;;;;;5.60;99.90;;;;;;2084980;28;19913;-72
2022/01/19 06:35:55;;;;;;;;;;;5.60;99.90;;;;;;2085367;28;19913;-72
2022/01/19 06:36:56;;;;;;;;;;;5.60;99.90;;;;;;2083420;28;19913;-72
2022/01/19 06:37:56;;;;;;;;;;;5.60;99.90;;;;;;2085639;28;19962;-72
2022/01/19 06:38:57;;;;;;;;;;;5.60;99.90;;;;;;2090768;28;19948;-72
2022/01/19 06:39:57;;;;;;;;;;;5.60;99.90;;;;;;2091975;28;19920;-72
2022/01/19 06:40:58;;;;;;;;;;;5.60;99.90;;;;;;2084222;28;20277;-72
2022/01/19 06:41:58;;;;;;;;;;;5.60;99.90;;;;;;2087641;28;20371;-72
2022/01/19 06:42:59;;;;;;;;;;;5.60;99.90;;;;;;2084659;28;19963;-73
2022/01/19 06:43:59;;;;;;;;;;;5.60;99.90;;;;;;2086060;28;20003;-72
2022/01/19 06:45:00;;;;;;;;;;;5.60;99.90;;;;;;2085067;28;19916;-72
2022/01/19 06:46:01;;;;;;;;;;;5.60;99.90;;;;;;2083814;28;19909;-72
2022/01/19 06:47:01;;;;;;;;;;;5.60;99.90;;;;;;2086115;28;19988;-72
2022/01/19 06:48:02;;;;;;;;;;;5.60;99.90;;;;;;2087861;28;19944;-72
2022/01/19 06:49:02;;;;;;;;;;;5.60;99.90;;;;;;2081125;28;19967;-72
2022/01/19 06:50:07;;;;;;;;;;;5.70;99.90;;;;;;2084903;28;19917;-72
2022/01/19 06:51:07;;;;;;;;;;;5.70;99.90;;;;;;2085543;28;19979;-72
2022/01/19 06:52:08;;;;;;;;;;;5.70;99.90;;;;;;2084794;28;19917;-72
2022/01/19 06:53:09;;;;;;;;;;;5.70;99.90;;;;;;2086639;28;19967;-72
2022/01/19 06:54:09;;;;;;;;;;;5.70;99.90;;;;;;2081688;28;19915;-72
2022/01/19 06:55:10;;;;;;;;;;;5.70;99.90;;;;;;2084242;28;19913;-72
2022/01/19 06:56:10;;;;;;;;;;;5.70;99.90;;;;;;2085740;28;19917;-72
2022/01/19 06:57:10;;;;;;;;;;;5.70;99.90;;;;;;2086111;28;19909;-72
2022/01/19 06:58:11;;;;;;;;;;;5.70;99.90;;;;;;2087892;28;19998;-72
2022/01/19 06:59:11;;;;;;;;;;;5.70;99.90;;;;;;2087723;28;19916;-72
2022/01/19 07:00:13;;;;;;;;;;;5.80;99.90;;;;;;2084598;28;19912;-72
2022/01/19 07:01:13;;;;;;;;;;;5.80;99.90;;;;;;2084526;28;19975;-72
2022/01/19 07:02:14;;;;;;;;;;;5.80;99.90;;;;;;2090207;28;19995;-73
2022/01/19 07:03:14;;;;;;;;;;;5.80;99.90;;;;;;2091702;28;20590;-72
2022/01/19 07:04:16;;;;;;;;;;;5.80;99.90;;;;;;2083165;28;19913;-72
2022/01/19 07:05:16;;;;;;;;;;;5.80;99.90;;;;;;2024227;28;1742069;-72
2022/01/19 07:06:17;;;;;;;;;;;5.80;99.90;;;;;;2088544;28;19917;-72
2022/01/19 07:07:18;;;;;;;;;;;5.80;99.90;;;;;;2091386;28;19920;-72
2022/01/19 07:08:18;;;;;;;;;;;5.80;99.90;;;;;;2087089;28;19932;-72
2022/01/19 07:09:19;;;;;;;;;;;5.80;99.90;;;;;;2085103;28;19983;-72
2022/01/19 07:10:19;;;;;;;;;;;5.80;99.90;;;;;;2085238;28;19909;-72
2022/01/19 07:11:20;;;;;;;;;;;5.80;99.90;;;;;;2087806;28;20004;-72
2022/01/19 07:12:20;;;;;;;;;;;5.80;99.90;;;;;;2086962;28;19909;-72
2022/01/19 07:13:21;;;;;;;;;;;5.80;99.90;;;;;;2086924;28;19909;-72
2022/01/19 07:14:22;;;;;;;;;;;5.90;99.90;;;;;;2086261;28;19936;-73
2022/01/19 07:15:22;;;;;;;;;;;5.90;99.90;;;;;;2085379;28;19928;-72
2022/01/19 07:16:23;;;;;;;;;;;5.90;99.90;;;;;;2085080;28;19978;-72
2022/01/19 07:17:23;;;;;;;;;;;5.90;99.90;;;;;;2083313;28;20393;-72
2022/01/19 07:18:24;;;;;;;;;;;5.90;99.90;;;;;;2087017;28;19961;-72
2022/01/19 07:19:24;;;;;;;;;;;5.90;99.90;;;;;;2084550;28;19979;-72
2022/01/19 07:20:25;;;;;;;;;;;5.90;99.90;;;;;;2095236;28;19913;-72
2022/01/19 07:21:25;;;;;;;;;;;5.90;99.90;;;;;;2095842;28;19955;-72
2022/01/19 07:22:26;;;;;;;;;;;5.90;99.90;;;;;;2089034;28;19909;-72
2022/01/19 07:23:26;;;;;;;;;;;5.90;99.90;;;;;;2087369;28;19959;-72
2022/01/19 07:24:27;;;;;;;;;;;5.90;99.90;;;;;;2089813;28;20320;-72